Hlavní strana
METAR-TAF:

METAR-TAF

Letiště :

Kuvajt, Kuvajt

zeměpisná šířka: 29-13N, zeměpisná délka: 047-59E, výška: 55 m

Aktuální stav počasí

Zpráva byla vytvořena před 16 minutami, v 07:00 UTC
Západoseverozápadní vítr 13 kt
Teplota 16°C
Vlhkost vzduchu 36%
Tlak 1021 hPa
Viditelnost: 3000 m
(slabý) zákal

METAR: OKBK 200700Z 29013KT 3000 -HZ NSC 16/01 Q1021 NOSIG

Čas: 10:16 (07:16 UTC)

Předpověď počasí

Zpráva byla vytvořena před 8 hodinami a 31 minutami, v 22:45 UTC
Předpověď platná od 20 v 00 UTC do 21 v 06 UTC
Severoseverozápadní vítr 12 kt s nárazy do 25 kt
Viditelnost: 2000 m
zvířený prach
Dočasný
od 20 v 00 UTC do 20 v 04 UTC
Viditelnost: 0500 m

TAF: OKBK 192245Z 2000/2106 34012G25KT 2000 BLDU NSC TEMPO 2000/2004 0500 DS

Stav a předpovědi počasí z více než 4 000 letišť (zprávy METAR a TAF).

Červené a žluté tečky na mapě představují dostupné meteorologické stanice.

Když kurzor umístíte na tečku, zobrazí se název stanice.

Pak kliknutím zobrazíte stav a předpověď počasí.

Chcete-li změnit mapu, kliknutím na zelené tlačítko se znaménkem +mapu přiblížíte, kliknutím na zelené tlačítko se znaménkem – mapu oddálíte a kliknutím na zelené šipky přejdete na sousední mapy.


METAR-TAF: